Terminal Aerodrome Forecast
Issued by NWS Quad Cities IA IL

Home | Current Version | Previous Version | Text Only | Print | Product List | Glossary On
Versions: 1 2 3 4 5 6 7 8 9 10 11 12 13 14 15
000
FTUS43 KDVN 061900 AAA
TAFMLI
TAF AMD
KMLI 061958Z 0620/0718 23013KT P6SM SKC
     FM070500 24005KT P6SM BKN100
     FM071600 27009KT P6SM SCT080=

USA.gov is the U.S. government's official web portal to all federal, state and local government web resources and services.